sensor_id;sensor_type;location;lat;lon;timestamp;temperature;humidity
34201;DHT22;20469;55.638;37.670;2022-10-28T00:24:18;4.20;99.90
34201;DHT22;20469;55.638;37.670;2022-10-28T00:29:15;4.10;99.90
34201;DHT22;20469;55.638;37.670;2022-10-28T00:34:14;4.00;99.90
34201;DHT22;20469;55.638;37.670;2022-10-28T00:36:43;4.00;99.90
34201;DHT22;20469;55.638;37.670;2022-10-28T00:39:16;4.00;99.90
34201;DHT22;20469;55.638;37.670;2022-10-28T00:41:47;4.00;99.90
34201;DHT22;20469;55.638;37.670;2022-10-28T00:50:29;4.10;99.90
34201;DHT22;20469;55.638;37.670;2022-10-28T00:53:02;4.10;99.90
34201;DHT22;20469;55.638;37.670;2022-10-28T00:55:30;4.10;99.90
34201;DHT22;20469;55.638;37.670;2022-10-28T01:02:54;5.40;99.90
34201;DHT22;20469;55.638;37.670;2022-10-28T01:05:26;4.10;99.90
34201;DHT22;20469;55.638;37.670;2022-10-28T01:07:58;4.20;99.90
34201;DHT22;20469;55.638;37.670;2022-10-28T01:13:43;4.10;99.90
34201;DHT22;20469;55.638;37.670;2022-10-28T01:16:34;4.10;99.90
34201;DHT22;20469;55.638;37.670;2022-10-28T01:22:22;4.20;99.90
34201;DHT22;20469;55.638;37.670;2022-10-28T01:25:13;4.20;99.90
34201;DHT22;20469;55.638;37.670;2022-10-28T01:28:02;4.20;99.90
34201;DHT22;20469;55.638;37.670;2022-10-28T01:33:30;4.10;99.90
34201;DHT22;20469;55.638;37.670;2022-10-28T01:36:14;4.00;99.90
34201;DHT22;20469;55.638;37.670;2022-10-28T01:38:50;4.10;99.90
34201;DHT22;20469;55.638;37.670;2022-10-28T01:41:30;4.10;99.90
34201;DHT22;20469;55.638;37.670;2022-10-28T01:44:24;4.20;99.90
34201;DHT22;20469;55.638;37.670;2022-10-28T01:46:59;4.20;99.90
34201;DHT22;20469;55.638;37.670;2022-10-28T01:49:37;4.10;99.90
34201;DHT22;20469;55.638;37.670;2022-10-28T01:52:10;4.10;99.90
34201;DHT22;20469;55.638;37.670;2022-10-28T01:54:41;3.70;99.90
34201;DHT22;20469;55.638;37.670;2022-10-28T01:57:11;4.10;99.90
34201;DHT22;20469;55.638;37.670;2022-10-28T02:09:50;4.10;99.90
34201;DHT22;20469;55.638;37.670;2022-10-28T02:12:30;4.10;99.90
34201;DHT22;20469;55.638;37.670;2022-10-28T02:15:38;4.20;99.90
34201;DHT22;20469;55.638;37.670;2022-10-28T02:18:29;4.20;99.90
34201;DHT22;20469;55.638;37.670;2022-10-28T02:21:02;4.20;99.90
34201;DHT22;20469;55.638;37.670;2022-10-28T02:23:41;4.10;99.90
34201;DHT22;20469;55.638;37.670;2022-10-28T02:26:23;4.10;99.90
34201;DHT22;20469;55.638;37.670;2022-10-28T02:29:03;4.20;99.90
34201;DHT22;20469;55.638;37.670;2022-10-28T02:31:42;4.20;99.90
34201;DHT22;20469;55.638;37.670;2022-10-28T02:34:17;4.20;99.90
34201;DHT22;20469;55.638;37.670;2022-10-28T02:36:50;4.30;99.90
34201;DHT22;20469;55.638;37.670;2022-10-28T02:39:20;4.30;99.90
34201;DHT22;20469;55.638;37.670;2022-10-28T02:41:55;4.20;99.90
34201;DHT22;20469;55.638;37.670;2022-10-28T02:44:29;4.40;99.90
34201;DHT22;20469;55.638;37.670;2022-10-28T02:47:00;4.30;99.90
34201;DHT22;20469;55.638;37.670;2022-10-28T02:49:32;4.30;99.90
34201;DHT22;20469;55.638;37.670;2022-10-28T02:52:04;4.30;99.90
34201;DHT22;20469;55.638;37.670;2022-10-28T02:54:40;4.30;99.90
34201;DHT22;20469;55.638;37.670;2022-10-28T02:57:13;4.30;99.90
34201;DHT22;20469;55.638;37.670;2022-10-28T03:21:53;4.40;99.90
34201;DHT22;20469;55.638;37.670;2022-10-28T03:49:03;4.30;99.90
34201;DHT22;20469;55.638;37.670;2022-10-28T04:40:47;4.50;99.90
34201;DHT22;20469;55.638;37.670;2022-10-28T04:45:44;4.60;99.90
34201;DHT22;20469;55.638;37.670;2022-10-28T05:03:01;4.60;99.90
34201;DHT22;20469;55.638;37.670;2022-10-28T05:05:29;5.20;99.90
34201;DHT22;20469;55.638;37.670;2022-10-28T05:10:24;4.90;99.90
34201;DHT22;20469;55.638;37.670;2022-10-28T05:20:18;4.80;99.90
34201;DHT22;20469;55.638;37.670;2022-10-28T05:22:47;4.80;99.90
34201;DHT22;20469;55.638;37.670;2022-10-28T05:25:15;4.90;99.90
34201;DHT22;20469;55.638;37.670;2022-10-28T05:27:43;5.10;99.90
34201;DHT22;20469;55.638;37.670;2022-10-28T06:02:14;5.00;99.90
34201;DHT22;20469;55.638;37.670;2022-10-28T06:04:45;5.00;99.90
34201;DHT22;20469;55.638;37.670;2022-10-28T06:07:16;5.00;99.90
34201;DHT22;20469;55.638;37.670;2022-10-28T06:09:47;5.00;99.90
34201;DHT22;20469;55.638;37.670;2022-10-28T06:12:19;5.10;99.90
34201;DHT22;20469;55.638;37.670;2022-10-28T06:14:50;5.00;99.90
34201;DHT22;20469;55.638;37.670;2022-10-28T06:17:24;5.10;99.90
34201;DHT22;20469;55.638;37.670;2022-10-28T06:19:58;5.50;99.90
34201;DHT22;20469;55.638;37.670;2022-10-28T06:22:32;5.10;99.90
34201;DHT22;20469;55.638;37.670;2022-10-28T06:47:18;5.50;99.90
34201;DHT22;20469;55.638;37.670;2022-10-28T07:02:10;5.50;99.90
34201;DHT22;20469;55.638;37.670;2022-10-28T07:04:39;5.50;99.90
34201;DHT22;20469;55.638;37.670;2022-10-28T07:09:36;5.80;99.90
34201;DHT22;20469;55.638;37.670;2022-10-28T07:14:40;6.10;99.90
34201;DHT22;20469;55.638;37.670;2022-10-28T07:22:13;5.20;99.90
34201;DHT22;20469;55.638;37.670;2022-10-28T07:24:41;5.70;99.90
34201;DHT22;20469;55.638;37.670;2022-10-28T07:27:12;5.90;99.90
34201;DHT22;20469;55.638;37.670;2022-10-28T07:29:41;5.90;99.90
34201;DHT22;20469;55.638;37.670;2022-10-28T07:32:09;6.20;99.90
34201;DHT22;20469;55.638;37.670;2022-10-28T07:34:37;6.00;99.90
34201;DHT22;20469;55.638;37.670;2022-10-28T07:37:05;6.40;99.90
34201;DHT22;20469;55.638;37.670;2022-10-28T07:39:33;6.20;99.90
34201;DHT22;20469;55.638;37.670;2022-10-28T07:44:31;3.70;99.90
34201;DHT22;20469;55.638;37.670;2022-10-28T07:46:58;5.80;99.90
34201;DHT22;20469;55.638;37.670;2022-10-28T07:49:27;5.60;99.90
34201;DHT22;20469;55.638;37.670;2022-10-28T07:54:25;6.50;99.90
34201;DHT22;20469;55.638;37.670;2022-10-28T08:14:15;6.60;99.90
34201;DHT22;20469;55.638;37.670;2022-10-28T08:26:46;7.00;99.90
34201;DHT22;20469;55.638;37.670;2022-10-28T08:29:13;7.20;99.90
34201;DHT22;20469;55.638;37.670;2022-10-28T08:31:41;6.70;99.90
34201;DHT22;20469;55.638;37.670;2022-10-28T08:34:10;7.00;99.90
34201;DHT22;20469;55.638;37.670;2022-10-28T08:41:38;7.50;99.90
34201;DHT22;20469;55.638;37.670;2022-10-28T08:47:15;7.70;99.90
34201;DHT22;20469;55.638;37.670;2022-10-28T08:49:48;7.60;99.90
34201;DHT22;20469;55.638;37.670;2022-10-28T08:52:33;7.50;99.90
34201;DHT22;20469;55.638;37.670;2022-10-28T08:55:11;7.20;99.90
34201;DHT22;20469;55.638;37.670;2022-10-28T08:58:06;7.20;99.90
34201;DHT22;20469;55.638;37.670;2022-10-28T09:03:15;7.10;99.90
34201;DHT22;20469;55.638;37.670;2022-10-28T09:05:46;7.30;99.90
34201;DHT22;20469;55.638;37.670;2022-10-28T09:08:25;7.30;99.90
34201;DHT22;20469;55.638;37.670;2022-10-28T09:11:04;7.40;99.90
34201;DHT22;20469;55.638;37.670;2022-10-28T09:14:00;7.40;99.90
34201;DHT22;20469;55.638;37.670;2022-10-28T09:16:48;7.40;99.90
34201;DHT22;20469;55.638;37.670;2022-10-28T09:22:48;7.70;99.90
34201;DHT22;20469;55.638;37.670;2022-10-28T09:25:40;7.80;99.90
34201;DHT22;20469;55.638;37.670;2022-10-28T09:28:29;7.70;99.90
34201;DHT22;20469;55.638;37.670;2022-10-28T09:31:24;7.70;99.90
34201;DHT22;20469;55.638;37.670;2022-10-28T09:34:04;7.90;99.90
34201;DHT22;20469;55.638;37.670;2022-10-28T09:36:41;7.70;99.90
34201;DHT22;20469;55.638;37.670;2022-10-28T09:39:26;7.90;99.90
34201;DHT22;20469;55.638;37.670;2022-10-28T09:41:58;7.90;99.90
34201;DHT22;20469;55.638;37.670;2022-10-28T09:44:48;8.30;99.90
34201;DHT22;20469;55.638;37.670;2022-10-28T09:47:24;8.50;99.90
34201;DHT22;20469;55.638;37.670;2022-10-28T09:49:56;8.50;99.90
34201;DHT22;20469;55.638;37.670;2022-10-28T09:52:34;9.00;99.90
34201;DHT22;20469;55.638;37.670;2022-10-28T09:55:17;9.20;99.90
34201;DHT22;20469;55.638;37.670;2022-10-28T09:57:49;9.70;99.90
34201;DHT22;20469;55.638;37.670;2022-10-28T10:02:48;8.20;99.90
34201;DHT22;20469;55.638;37.670;2022-10-28T10:07:52;9.20;99.90
34201;DHT22;20469;55.638;37.670;2022-10-28T10:10:27;9.20;99.90
34201;DHT22;20469;55.638;37.670;2022-10-28T10:13:02;8.80;99.90
34201;DHT22;20469;55.638;37.670;2022-10-28T10:15:48;11.90;99.90
34201;DHT22;20469;55.638;37.670;2022-10-28T10:18:22;9.40;99.90
34201;DHT22;20469;55.638;37.670;2022-10-28T10:20:54;8.50;99.90
34201;DHT22;20469;55.638;37.670;2022-10-28T10:23:33;8.80;99.90
34201;DHT22;20469;55.638;37.670;2022-10-28T10:26:11;8.60;99.90
34201;DHT22;20469;55.638;37.670;2022-10-28T10:28:44;8.50;99.90
34201;DHT22;20469;55.638;37.670;2022-10-28T10:31:21;8.70;99.90
34201;DHT22;20469;55.638;37.670;2022-10-28T10:33:52;8.30;99.90
34201;DHT22;20469;55.638;37.670;2022-10-28T10:36:24;8.20;99.90
34201;DHT22;20469;55.638;37.670;2022-10-28T10:38:59;8.40;99.90
34201;DHT22;20469;55.638;37.670;2022-10-28T10:41:37;8.40;99.90
34201;DHT22;20469;55.638;37.670;2022-10-28T10:47:17;8.30;99.90
34201;DHT22;20469;55.638;37.670;2022-10-28T10:52:27;8.80;99.90
34201;DHT22;20469;55.638;37.670;2022-10-28T10:54:59;8.60;99.90
34201;DHT22;20469;55.638;37.670;2022-10-28T10:57:30;7.60;99.90
34201;DHT22;20469;55.638;37.670;2022-10-28T11:00:00;8.40;99.90
34201;DHT22;20469;55.638;37.670;2022-10-28T11:02:36;8.20;99.90
34201;DHT22;20469;55.638;37.670;2022-10-28T11:05:11;8.40;99.90
34201;DHT22;20469;55.638;37.670;2022-10-28T11:07:51;8.50;99.90
34201;DHT22;20469;55.638;37.670;2022-10-28T11:10:24;8.50;99.90
34201;DHT22;20469;55.638;37.670;2022-10-28T11:13:01;8.20;99.90
34201;DHT22;20469;55.638;37.670;2022-10-28T11:15:31;8.40;99.90
34201;DHT22;20469;55.638;37.670;2022-10-28T11:18:17;8.40;99.90
34201;DHT22;20469;55.638;37.670;2022-10-28T11:20:56;8.90;99.90
34201;DHT22;20469;55.638;37.670;2022-10-28T11:23:44;8.50;99.90
34201;DHT22;20469;55.638;37.670;2022-10-28T11:26:14;8.60;99.90
34201;DHT22;20469;55.638;37.670;2022-10-28T11:29:08;8.60;99.90
34201;DHT22;20469;55.638;37.670;2022-10-28T11:34:44;8.80;99.90
34201;DHT22;20469;55.638;37.670;2022-10-28T11:37:25;8.70;99.90
34201;DHT22;20469;55.638;37.670;2022-10-28T11:40:18;8.70;99.90
34201;DHT22;20469;55.638;37.670;2022-10-28T11:43:04;8.80;99.90
34201;DHT22;20469;55.638;37.670;2022-10-28T11:45:43;8.90;99.90
34201;DHT22;20469;55.638;37.670;2022-10-28T11:54:20;9.50;99.90
34201;DHT22;20469;55.638;37.670;2022-10-28T11:57:00;9.00;99.90
34201;DHT22;20469;55.638;37.670;2022-10-28T12:02:43;9.10;99.90
34201;DHT22;20469;55.638;37.670;2022-10-28T12:08:46;9.00;99.90
34201;DHT22;20469;55.638;37.670;2022-10-28T12:14:36;9.10;99.90
34201;DHT22;20469;55.638;37.670;2022-10-28T12:20:27;9.40;99.90
34201;DHT22;20469;55.638;37.670;2022-10-28T12:23:00;9.10;99.90
34201;DHT22;20469;55.638;37.670;2022-10-28T12:25:33;9.20;99.90
34201;DHT22;20469;55.638;37.670;2022-10-28T12:28:06;9.20;99.90
34201;DHT22;20469;55.638;37.670;2022-10-28T12:30:41;9.10;99.90
34201;DHT22;20469;55.638;37.670;2022-10-28T12:39:10;8.80;99.90
34201;DHT22;20469;55.638;37.670;2022-10-28T12:42:01;9.10;99.90
34201;DHT22;20469;55.638;37.670;2022-10-28T12:44:36;9.10;99.90
34201;DHT22;20469;55.638;37.670;2022-10-28T12:47:18;9.00;99.90
34201;DHT22;20469;55.638;37.670;2022-10-28T12:52:55;9.10;99.90
34201;DHT22;20469;55.638;37.670;2022-10-28T12:55:34;9.00;99.90
34201;DHT22;20469;55.638;37.670;2022-10-28T12:58:21;9.00;99.90
34201;DHT22;20469;55.638;37.670;2022-10-28T13:00:55;9.00;99.90
34201;DHT22;20469;55.638;37.670;2022-10-28T13:03:28;9.40;99.90
34201;DHT22;20469;55.638;37.670;2022-10-28T13:12:10;9.00;99.90
34201;DHT22;20469;55.638;37.670;2022-10-28T13:18:07;9.00;99.90
34201;DHT22;20469;55.638;37.670;2022-10-28T13:26:41;8.90;99.90
34201;DHT22;20469;55.638;37.670;2022-10-28T13:29:23;8.90;99.90
34201;DHT22;20469;55.638;37.670;2022-10-28T13:31:54;9.30;99.90
34201;DHT22;20469;55.638;37.670;2022-10-28T13:34:30;8.90;99.90
34201;DHT22;20469;55.638;37.670;2022-10-28T13:37:04;8.90;99.90
34201;DHT22;20469;55.638;37.670;2022-10-28T13:39:43;9.10;99.90
34201;DHT22;20469;55.638;37.670;2022-10-28T13:42:37;9.00;99.90
34201;DHT22;20469;55.638;37.670;2022-10-28T13:48:31;8.90;99.90
34201;DHT22;20469;55.638;37.670;2022-10-28T13:51:29;8.90;99.90
34201;DHT22;20469;55.638;37.670;2022-10-28T13:56:36;6.70;99.90
34201;DHT22;20469;55.638;37.670;2022-10-28T13:59:19;8.90;99.90
34201;DHT22;20469;55.638;37.670;2022-10-28T14:01:55;8.80;99.90
34201;DHT22;20469;55.638;37.670;2022-10-28T14:04:57;8.90;99.90
34201;DHT22;20469;55.638;37.670;2022-10-28T14:07:29;9.10;99.90
34201;DHT22;20469;55.638;37.670;2022-10-28T14:10:11;8.90;99.90
34201;DHT22;20469;55.638;37.670;2022-10-28T14:12:51;8.90;99.90
34201;DHT22;20469;55.638;37.670;2022-10-28T14:18:26;8.90;99.90
34201;DHT22;20469;55.638;37.670;2022-10-28T14:24:05;8.90;99.90
34201;DHT22;20469;55.638;37.670;2022-10-28T14:32:54;8.70;99.90
34201;DHT22;20469;55.638;37.670;2022-10-28T14:35:28;8.80;99.90
34201;DHT22;20469;55.638;37.670;2022-10-28T14:38:16;8.90;99.90
34201;DHT22;20469;55.638;37.670;2022-10-28T14:40:50;8.60;99.90
34201;DHT22;20469;55.638;37.670;2022-10-28T14:46:23;8.90;99.90
34201;DHT22;20469;55.638;37.670;2022-10-28T14:48:58;8.90;99.90
34201;DHT22;20469;55.638;37.670;2022-10-28T14:51:28;8.90;99.90
34201;DHT22;20469;55.638;37.670;2022-10-28T14:53:57;8.80;99.90
34201;DHT22;20469;55.638;37.670;2022-10-28T14:56:29;8.70;99.90
34201;DHT22;20469;55.638;37.670;2022-10-28T14:59:15;8.70;99.90
34201;DHT22;20469;55.638;37.670;2022-10-28T15:02:13;8.80;99.90
34201;DHT22;20469;55.638;37.670;2022-10-28T15:04:47;8.70;99.90
34201;DHT22;20469;55.638;37.670;2022-10-28T15:07:17;8.70;99.90
34201;DHT22;20469;55.638;37.670;2022-10-28T15:09:48;8.70;99.90
34201;DHT22;20469;55.638;37.670;2022-10-28T15:12:21;8.70;99.90
34201;DHT22;20469;55.638;37.670;2022-10-28T15:14:56;8.90;99.90
34201;DHT22;20469;55.638;37.670;2022-10-28T15:17:26;8.30;99.90
34201;DHT22;20469;55.638;37.670;2022-10-28T15:19:58;8.70;99.90
34201;DHT22;20469;55.638;37.670;2022-10-28T15:22:28;8.30;99.90
34201;DHT22;20469;55.638;37.670;2022-10-28T15:25:00;8.20;99.90
34201;DHT22;20469;55.638;37.670;2022-10-28T15:27:34;8.60;99.90
34201;DHT22;20469;55.638;37.670;2022-10-28T15:30:12;8.60;99.90
34201;DHT22;20469;55.638;37.670;2022-10-28T15:32:40;8.60;99.90
34201;DHT22;20469;55.638;37.670;2022-10-28T15:35:40;8.60;99.90
34201;DHT22;20469;55.638;37.670;2022-10-28T15:38:33;8.20;99.90
34201;DHT22;20469;55.638;37.670;2022-10-28T15:44:26;8.60;99.90
34201;DHT22;20469;55.638;37.670;2022-10-28T15:49:43;10.20;99.90
34201;DHT22;20469;55.638;37.670;2022-10-28T15:52:20;8.50;99.90
34201;DHT22;20469;55.638;37.670;2022-10-28T15:54:58;8.80;99.90
34201;DHT22;20469;55.638;37.670;2022-10-28T15:57:28;8.70;99.90
34201;DHT22;20469;55.638;37.670;2022-10-28T16:03:01;9.00;99.90
34201;DHT22;20469;55.638;37.670;2022-10-28T16:05:49;8.90;99.90
34201;DHT22;20469;55.638;37.670;2022-10-28T16:08:21;8.70;99.90
34201;DHT22;20469;55.638;37.670;2022-10-28T16:11:02;8.80;99.90
34201;DHT22;20469;55.638;37.670;2022-10-28T16:13:36;8.80;99.90
34201;DHT22;20469;55.638;37.670;2022-10-28T16:16:12;8.80;99.90
34201;DHT22;20469;55.638;37.670;2022-10-28T16:18:44;8.80;99.90
34201;DHT22;20469;55.638;37.670;2022-10-28T16:21:20;9.10;99.90
34201;DHT22;20469;55.638;37.670;2022-10-28T16:23:57;9.10;99.90
34201;DHT22;20469;55.638;37.670;2022-10-28T16:26:30;9.30;99.90
34201;DHT22;20469;55.638;37.670;2022-10-28T16:31:32;9.30;99.90
34201;DHT22;20469;55.638;37.670;2022-10-28T16:34:01;9.00;99.90
34201;DHT22;20469;55.638;37.670;2022-10-28T16:46:23;8.80;99.90
34201;DHT22;20469;55.638;37.670;2022-10-28T16:51:21;8.80;99.90
34201;DHT22;20469;55.638;37.670;2022-10-28T16:53:50;8.70;99.90
34201;DHT22;20469;55.638;37.670;2022-10-28T16:56:18;9.10;99.90
34201;DHT22;20469;55.638;37.670;2022-10-28T17:03:50;8.80;99.90
34201;DHT22;20469;55.638;37.670;2022-10-28T17:11:29;8.80;99.90
34201;DHT22;20469;55.638;37.670;2022-10-28T17:21:26;9.40;99.90
34201;DHT22;20469;55.638;37.670;2022-10-28T17:26:22;8.80;99.90
34201;DHT22;20469;55.638;37.670;2022-10-28T17:28:51;8.80;99.90
34201;DHT22;20469;55.638;37.670;2022-10-28T17:31:19;9.00;99.90
34201;DHT22;20469;55.638;37.670;2022-10-28T17:33:52;8.70;99.90
34201;DHT22;20469;55.638;37.670;2022-10-28T17:36:22;8.70;99.90
34201;DHT22;20469;55.638;37.670;2022-10-28T17:38:50;9.00;99.90
34201;DHT22;20469;55.638;37.670;2022-10-28T17:41:19;8.80;99.90
34201;DHT22;20469;55.638;37.670;2022-10-28T17:46:17;8.80;99.90
34201;DHT22;20469;55.638;37.670;2022-10-28T17:48:51;8.90;99.90
34201;DHT22;20469;55.638;37.670;2022-10-28T17:51:20;8.80;99.90
34201;DHT22;20469;55.638;37.670;2022-10-28T17:53:53;8.80;99.90
34201;DHT22;20469;55.638;37.670;2022-10-28T17:56:23;8.70;99.90
34201;DHT22;20469;55.638;37.670;2022-10-28T17:58:52;8.80;99.90
34201;DHT22;20469;55.638;37.670;2022-10-28T18:01:22;8.80;99.90
34201;DHT22;20469;55.638;37.670;2022-10-28T18:03:50;8.40;99.90
34201;DHT22;20469;55.638;37.670;2022-10-28T18:08:47;8.70;99.90
34201;DHT22;20469;55.638;37.670;2022-10-28T18:11:17;9.10;99.90
34201;DHT22;20469;55.638;37.670;2022-10-28T18:13:49;8.80;99.90
34201;DHT22;20469;55.638;37.670;2022-10-28T18:16:24;8.80;99.90
34201;DHT22;20469;55.638;37.670;2022-10-28T18:18:56;8.80;99.90
34201;DHT22;20469;55.638;37.670;2022-10-28T18:23:54;8.70;99.90
34201;DHT22;20469;55.638;37.670;2022-10-28T18:26:32;8.40;99.90
34201;DHT22;20469;55.638;37.670;2022-10-28T18:29:00;8.70;99.90
34201;DHT22;20469;55.638;37.670;2022-10-28T18:31:32;8.80;99.90
34201;DHT22;20469;55.638;37.670;2022-10-28T18:34:02;9.00;99.90
34201;DHT22;20469;55.638;37.670;2022-10-28T18:36:32;8.70;99.90
34201;DHT22;20469;55.638;37.670;2022-10-28T18:39:05;8.80;99.90
34201;DHT22;20469;55.638;37.670;2022-10-28T18:41:37;9.20;99.90
34201;DHT22;20469;55.638;37.670;2022-10-28T18:44:11;8.70;99.90
34201;DHT22;20469;55.638;37.670;2022-10-28T18:46:41;8.80;99.90
34201;DHT22;20469;55.638;37.670;2022-10-28T18:49:15;8.80;99.90
34201;DHT22;20469;55.638;37.670;2022-10-28T18:51:44;8.90;99.90
34201;DHT22;20469;55.638;37.670;2022-10-28T18:54:13;8.90;99.90
34201;DHT22;20469;55.638;37.670;2022-10-28T18:56:43;9.10;99.90
34201;DHT22;20469;55.638;37.670;2022-10-28T18:59:15;8.40;99.90
34201;DHT22;20469;55.638;37.670;2022-10-28T19:01:45;8.20;99.90
34201;DHT22;20469;55.638;37.670;2022-10-28T19:04:14;8.70;99.90
34201;DHT22;20469;55.638;37.670;2022-10-28T19:19:09;8.80;99.90
34201;DHT22;20469;55.638;37.670;2022-10-28T19:24:08;8.80;99.90
34201;DHT22;20469;55.638;37.670;2022-10-28T19:29:12;8.80;99.90
34201;DHT22;20469;55.638;37.670;2022-10-28T19:31:40;8.90;99.90
34201;DHT22;20469;55.638;37.670;2022-10-28T19:34:10;9.60;99.90
34201;DHT22;20469;55.638;37.670;2022-10-28T19:36:41;8.40;99.90
34201;DHT22;20469;55.638;37.670;2022-10-28T19:39:10;8.50;99.90
34201;DHT22;20469;55.638;37.670;2022-10-28T19:44:08;8.90;99.90
34201;DHT22;20469;55.638;37.670;2022-10-28T19:49:09;9.00;99.90
34201;DHT22;20469;55.638;37.670;2022-10-28T19:51:39;9.00;99.90
34201;DHT22;20469;55.638;37.670;2022-10-28T19:54:10;9.00;99.90
34201;DHT22;20469;55.638;37.670;2022-10-28T20:01:39;8.80;99.90
34201;DHT22;20469;55.638;37.670;2022-10-28T20:04:09;9.20;99.90
34201;DHT22;20469;55.638;37.670;2022-10-28T20:06:38;9.20;99.90
34201;DHT22;20469;55.638;37.670;2022-10-28T20:11:36;9.20;99.90
34201;DHT22;20469;55.638;37.670;2022-10-28T20:14:09;9.20;99.90
34201;DHT22;20469;55.638;37.670;2022-10-28T20:16:40;9.20;99.90
34201;DHT22;20469;55.638;37.670;2022-10-28T20:19:11;9.20;99.90
34201;DHT22;20469;55.638;37.670;2022-10-28T20:21:43;9.20;99.90
34201;DHT22;20469;55.638;37.670;2022-10-28T20:34:06;9.10;99.90
34201;DHT22;20469;55.638;37.670;2022-10-28T20:36:37;9.20;99.90
34201;DHT22;20469;55.638;37.670;2022-10-28T20:39:12;9.10;99.90
34201;DHT22;20469;55.638;37.670;2022-10-28T20:41:43;9.20;99.90
34201;DHT22;20469;55.638;37.670;2022-10-28T20:44:11;9.20;99.90
34201;DHT22;20469;55.638;37.670;2022-10-28T20:49:08;8.70;99.90
34201;DHT22;20469;55.638;37.670;2022-10-28T20:54:06;9.40;99.90
34201;DHT22;20469;55.638;37.670;2022-10-28T20:56:36;9.20;99.90
34201;DHT22;20469;55.638;37.670;2022-10-28T20:59:04;9.60;99.90
34201;DHT22;20469;55.638;37.670;2022-10-28T21:01:34;8.20;99.90
34201;DHT22;20469;55.638;37.670;2022-10-28T21:04:05;9.30;99.90
34201;DHT22;20469;55.638;37.670;2022-10-28T21:06:35;9.60;99.90
34201;DHT22;20469;55.638;37.670;2022-10-28T21:09:03;9.30;99.90
34201;DHT22;20469;55.638;37.670;2022-10-28T21:11:32;9.30;99.90
34201;DHT22;20469;55.638;37.670;2022-10-28T21:14:03;9.20;99.90
34201;DHT22;20469;55.638;37.670;2022-10-28T21:18:59;8.90;99.90
34201;DHT22;20469;55.638;37.670;2022-10-28T21:21:28;9.20;99.90
34201;DHT22;20469;55.638;37.670;2022-10-28T21:26:25;9.20;99.90
34201;DHT22;20469;55.638;37.670;2022-10-28T21:31:23;9.40;99.90
34201;DHT22;20469;55.638;37.670;2022-10-28T21:33:52;9.20;99.90
34201;DHT22;20469;55.638;37.670;2022-10-28T21:36:21;9.10;99.90
34201;DHT22;20469;55.638;37.670;2022-10-28T21:38:52;9.20;99.90
34201;DHT22;20469;55.638;37.670;2022-10-28T21:41:22;9.20;99.90
34201;DHT22;20469;55.638;37.670;2022-10-28T21:43:52;9.10;99.90
34201;DHT22;20469;55.638;37.670;2022-10-28T21:46:23;9.20;99.90
34201;DHT22;20469;55.638;37.670;2022-10-28T21:48:51;9.10;99.90
34201;DHT22;20469;55.638;37.670;2022-10-28T21:58:48;9.20;99.90
34201;DHT22;20469;55.638;37.670;2022-10-28T22:01:19;9.50;99.90
34201;DHT22;20469;55.638;37.670;2022-10-28T22:03:49;9.00;99.90
34201;DHT22;20469;55.638;37.670;2022-10-28T22:08:47;9.40;99.90
34201;DHT22;20469;55.638;37.670;2022-10-28T22:11:17;9.30;99.90
34201;DHT22;20469;55.638;37.670;2022-10-28T22:13:47;9.30;99.90
34201;DHT22;20469;55.638;37.670;2022-10-28T22:16:17;9.30;99.90
34201;DHT22;20469;55.638;37.670;2022-10-28T22:18:45;8.90;99.90
34201;DHT22;20469;55.638;37.670;2022-10-28T22:21:19;9.30;99.90
34201;DHT22;20469;55.638;37.670;2022-10-28T22:23:49;9.30;99.90
34201;DHT22;20469;55.638;37.670;2022-10-28T22:26:25;8.30;99.90
34201;DHT22;20469;55.638;37.670;2022-10-28T22:31:26;9.30;99.90
34201;DHT22;20469;55.638;37.670;2022-10-28T22:33:55;8.50;99.90
34201;DHT22;20469;55.638;37.670;2022-10-28T22:36:26;9.30;99.90
34201;DHT22;20469;55.638;37.670;2022-10-28T22:38:57;9.40;99.90
34201;DHT22;20469;55.638;37.670;2022-10-28T22:41:28;9.30;99.90
34201;DHT22;20469;55.638;37.670;2022-10-28T22:43:57;9.40;99.90
34201;DHT22;20469;55.638;37.670;2022-10-28T22:46:27;9.40;99.90
34201;DHT22;20469;55.638;37.670;2022-10-28T22:48:55;9.30;99.90
34201;DHT22;20469;55.638;37.670;2022-10-28T22:53:50;9.50;99.90
34201;DHT22;20469;55.638;37.670;2022-10-28T22:56:20;9.30;99.90
34201;DHT22;20469;55.638;37.670;2022-10-28T22:58:54;9.30;99.90
34201;DHT22;20469;55.638;37.670;2022-10-28T23:01:23;9.30;99.90
34201;DHT22;20469;55.638;37.670;2022-10-28T23:03:52;9.30;99.90
34201;DHT22;20469;55.638;37.670;2022-10-28T23:06:23;9.30;99.90
34201;DHT22;20469;55.638;37.670;2022-10-28T23:08:53;9.50;99.90
34201;DHT22;20469;55.638;37.670;2022-10-28T23:11:22;9.30;99.90
34201;DHT22;20469;55.638;37.670;2022-10-28T23:13:51;9.30;99.90
34201;DHT22;20469;55.638;37.670;2022-10-28T23:16:21;9.10;99.90
34201;DHT22;20469;55.638;37.670;2022-10-28T23:21:23;9.30;99.90
34201;DHT22;20469;55.638;37.670;2022-10-28T23:23:54;9.10;99.90
34201;DHT22;20469;55.638;37.670;2022-10-28T23:26:26;9.40;99.90
34201;DHT22;20469;55.638;37.670;2022-10-28T23:28:57;9.40;99.90
34201;DHT22;20469;55.638;37.670;2022-10-28T23:31:26;9.40;99.90
34201;DHT22;20469;55.638;37.670;2022-10-28T23:33:55;9.60;99.90
34201;DHT22;20469;55.638;37.670;2022-10-28T23:36:25;9.70;99.90
34201;DHT22;20469;55.638;37.670;2022-10-28T23:38:55;9.10;99.90
34201;DHT22;20469;55.638;37.670;2022-10-28T23:41:27;9.50;99.90
34201;DHT22;20469;55.638;37.670;2022-10-28T23:43:56;9.60;99.90
34201;DHT22;20469;55.638;37.670;2022-10-28T23:49:04;9.50;99.90
34201;DHT22;20469;55.638;37.670;2022-10-28T23:54:02;9.80;99.90
34201;DHT22;20469;55.638;37.670;2022-10-28T23:56:33;9.50;99.90
34201;DHT22;20469;55.638;37.670;2022-10-28T23:59:01;9.90;99.90
